Time;durP1;ratioP1;P1;durP2;ratioP2;P2;SDS_P1;SDS_P2;PMS_P1;PMS_P2;Temp;Humidity;BMP_temperature;BMP_pressure;BME280_temperature;BME280_humidity;BME280_pressure;Samples;Min_cycle;Max_cycle;Signal;HPM_P1;HPM_P2
2024/02/10 00:01:56;;;;;;;10.93;4.00;;;;;;;8.95;100.00;97988.44;5200060;28;20037;-76
2024/02/10 00:04:27;;;;;;;7.88;3.63;;;;;;;8.95;100.00;97985.84;5192386;28;20384;-76
2024/02/10 00:06:57;;;;;;;11.63;3.53;;;;;;;9.06;100.00;97987.69;5200064;28;20630;-76
2024/02/10 00:09:28;;;;;;;11.55;3.80;;;;;;;9.09;100.00;97977.84;5198446;28;20535;-76
2024/02/10 00:11:58;;;;;;;10.68;3.53;;;;;;;9.09;100.00;97980.47;5193670;28;20029;-76
2024/02/10 00:14:28;;;;;;;9.30;3.42;;;;;;;9.05;100.00;97981.63;5201035;28;20040;-76
2024/02/10 00:16:59;;;;;;;9.18;3.63;;;;;;;8.94;100.00;97983.31;5200530;28;20498;-76
2024/02/10 00:19:29;;;;;;;12.23;4.07;;;;;;;8.89;100.00;97981.03;5200989;28;20029;-76
2024/02/10 00:21:59;;;;;;;9.13;3.80;;;;;;;8.84;100.00;97984.91;5186065;28;20024;-76
2024/02/10 00:24:30;;;;;;;11.90;3.65;;;;;;;8.82;100.00;97982.41;5194673;28;20030;-76
2024/02/10 00:27:01;;;;;;;8.50;3.78;;;;;;;8.81;100.00;97983.38;5187789;28;20394;-76
2024/02/10 00:29:33;;;;;;;11.13;4.03;;;;;;;8.84;100.00;97987.50;5196406;28;20422;-76
2024/02/10 00:32:03;;;;;;;9.90;3.80;;;;;;;8.85;100.00;97982.19;5183766;28;20029;-76
2024/02/10 00:34:34;;;;;;;9.90;3.80;;;;;;;8.83;100.00;97980.63;5191149;28;20033;-74
2024/02/10 00:37:04;;;;;;;10.35;3.67;;;;;;;8.82;100.00;97979.81;5194817;28;20216;-76
2024/02/10 00:39:35;;;;;;;9.20;3.72;;;;;;;8.84;100.00;97980.53;5197192;28;20033;-76
2024/02/10 00:42:05;;;;;;;13.32;5.18;;;;;;;8.85;100.00;97978.75;5195472;28;20109;-76
2024/02/10 00:44:35;;;;;;;9.63;4.20;;;;;;;8.85;100.00;97982.19;5196195;28;20040;-76
2024/02/10 00:47:12;;;;;;;15.88;4.50;;;;;;;8.90;100.00;97982.69;5200345;28;20511;-76
2024/02/10 00:49:43;;;;;;;11.68;3.90;;;;;;;8.90;100.00;97977.50;5200518;28;20025;-76
2024/02/10 00:52:17;;;;;;;22.58;4.47;;;;;;;9.06;100.00;97970.25;5172898;28;20017;-76
2024/02/10 00:54:47;;;;;;;9.50;3.80;;;;;;;9.07;100.00;97969.31;5183977;28;20068;-76
2024/02/10 00:57:17;;;;;;;7.65;3.85;;;;;;;9.19;100.00;97968.47;5195610;28;20033;-76
2024/02/10 00:59:48;;;;;;;12.10;4.35;;;;;;;9.15;100.00;97972.22;5187802;28;20475;-76
2024/02/10 01:02:19;;;;;;;11.27;3.78;;;;;;;9.24;100.00;97974.16;5198353;28;20029;-76
2024/02/10 01:04:50;;;;;;;11.90;3.60;;;;;;;9.23;100.00;97973.34;5195405;28;20426;-77
2024/02/10 01:07:23;;;;;;;11.30;3.75;;;;;;;9.16;100.00;97971.28;5187744;28;20036;-76
2024/02/10 01:09:53;;;;;;;12.63;3.88;;;;;;;9.19;100.00;97971.91;5179122;28;20553;-76
2024/02/10 01:12:23;;;;;;;9.57;3.80;;;;;;;9.21;100.00;97977.00;5198537;28;20048;-76
2024/02/10 01:14:57;;;;;;;8.02;3.50;;;;;;;9.25;100.00;97978.44;5197486;28;20052;-75
2024/02/10 01:17:27;;;;;;;15.52;4.38;;;;;;;9.18;100.00;97977.22;5195470;28;20044;-76
2024/02/10 01:19:57;;;;;;;10.27;3.33;;;;;;;9.06;100.00;97970.25;5197764;28;20025;-76
2024/02/10 01:22:31;;;;;;;12.35;3.75;;;;;;;9.06;100.00;97978.06;5174474;28;20037;-76
2024/02/10 01:25:01;;;;;;;13.48;4.18;;;;;;;9.15;100.00;97977.44;5189895;28;20040;-76
2024/02/10 01:27:31;;;;;;;11.35;3.25;;;;;;;9.14;100.00;97976.59;5194638;28;20510;-76
2024/02/10 01:30:03;;;;;;;11.55;3.78;;;;;;;9.19;100.00;97973.66;5196526;28;20390;-76
2024/02/10 01:32:33;;;;;;;11.73;4.13;;;;;;;9.14;100.00;97976.59;5197994;28;20125;-76
2024/02/10 01:35:04;;;;;;;8.57;3.58;;;;;;;9.15;100.00;97980.88;5188779;28;20398;-76
2024/02/10 01:37:34;;;;;;;8.50;3.65;;;;;;;9.08;100.00;97980.59;5196627;28;20029;-76
2024/02/10 01:40:06;;;;;;;10.00;3.72;;;;;;;9.05;100.00;97986.84;5195753;28;20084;-76
2024/02/10 01:42:37;;;;;;;12.23;3.80;;;;;;;9.15;100.00;97980.03;5198556;28;20029;-76
2024/02/10 01:45:11;;;;;;;8.52;4.03;;;;;;;9.17;100.00;97978.16;5198049;28;20044;-76
2024/02/10 01:47:43;;;;;;;10.80;4.30;;;;;;;9.16;100.00;97977.31;5197968;28;20398;-76
2024/02/10 01:50:13;;;;;;;14.57;4.40;;;;;;;9.20;100.00;97976.19;5186900;28;20033;-76
2024/02/10 01:52:44;;;;;;;10.55;4.25;;;;;;;9.26;100.00;97974.88;5175587;28;20054;-77
2024/02/10 01:55:14;;;;;;;12.98;3.88;;;;;;;9.30;100.00;97974.56;5196865;28;20033;-76
2024/02/10 01:57:52;;;;;;;10.27;3.85;;;;;;;9.22;100.00;97978.66;5180969;28;20442;-76
2024/02/10 02:00:25;;;;;;;12.63;4.07;;;;;;;9.22;100.00;97978.66;5184123;28;20107;-76
2024/02/10 02:02:59;;;;;;;9.68;4.13;;;;;;;9.26;100.00;97975.72;5198306;28;20459;-76
2024/02/10 02:05:33;;;;;;;12.60;3.97;;;;;;;9.28;100.00;97975.63;5196897;28;20396;-77
2024/02/10 02:08:04;;;;;;;9.32;4.05;;;;;;;9.22;100.00;97978.66;5184921;28;20249;-77
2024/02/10 02:10:35;;;;;;;9.43;4.43;;;;;;;9.24;100.00;97972.41;5195995;28;20041;-77
2024/02/10 02:13:05;;;;;;;15.52;4.60;;;;;;;9.25;100.00;97976.66;5186825;28;20430;-77
2024/02/10 02:15:35;;;;;;;10.25;4.68;;;;;;;9.25;100.00;97979.28;5196992;28;20120;-77
2024/02/10 02:18:07;;;;;;;12.20;4.35;;;;;;;9.36;100.00;97974.13;5196489;28;20037;-77
2024/02/10 02:20:37;;;;;;;15.95;3.90;;;;;;;9.32;100.00;97979.66;5196629;28;20040;-77
2024/02/10 02:23:07;;;;;;;12.90;4.32;;;;;;;9.34;100.00;97977.78;5196981;28;20022;-77
2024/02/10 02:25:38;;;;;;;13.05;5.35;;;;;;;9.31;100.00;97978.81;5186217;28;20103;-77
2024/02/10 02:28:08;;;;;;;11.25;4.32;;;;;;;9.43;100.00;97979.72;5194025;28;20100;-76
2024/02/10 02:30:38;;;;;;;13.73;4.78;;;;;;;9.42;100.00;97973.69;5198325;28;20029;-77
2024/02/10 02:33:10;;;;;;;14.52;4.35;;;;;;;9.45;100.00;97980.47;5197656;28;20091;-77
2024/02/10 02:35:43;;;;;;;11.38;4.40;;;;;;;9.46;100.00;97982.13;5181142;28;20025;-77
2024/02/10 02:38:13;;;;;;;10.13;4.40;;;;;;;9.38;100.00;97979.22;5181211;28;20025;-77
2024/02/10 02:40:44;;;;;;;10.85;4.50;;;;;;;9.37;100.00;97977.56;5188989;28;20052;-77
2024/02/10 02:43:14;;;;;;;14.13;5.00;;;;;;;9.43;100.00;97969.28;5197170;28;20104;-77
2024/02/10 02:45:44;;;;;;;8.88;4.57;;;;;;;9.42;100.00;97972.84;5197052;28;20534;-77
2024/02/10 02:48:15;;;;;;;13.45;4.95;;;;;;;9.47;100.00;97976.78;5196264;28;20033;-78
2024/02/10 02:50:46;;;;;;;10.65;5.15;;;;;;;9.44;100.00;97973.56;5185756;28;20055;-77
2024/02/10 02:53:16;;;;;;;13.63;5.22;;;;;;;9.51;100.00;97973.00;5192505;28;20026;-77
2024/02/10 02:55:47;;;;;;;9.77;4.47;;;;;;;9.53;100.00;97978.13;5185254;28;20031;-77
2024/02/10 02:58:18;;;;;;;10.48;4.95;;;;;;;9.48;100.00;97980.22;5185946;28;20025;-77
2024/02/10 03:00:48;;;;;;;17.30;5.53;;;;;;;9.52;100.00;97974.66;5184246;28;20056;-78
2024/02/10 03:03:19;;;;;;;10.63;4.60;;;;;;;9.56;100.00;97972.69;5196160;28;20384;-77
2024/02/10 03:05:49;;;;;;;13.45;4.65;;;;;;;9.52;100.00;97971.25;5185216;28;20033;-77
2024/02/10 03:08:20;;;;;;;14.25;5.07;;;;;;;9.51;100.00;97975.59;5196097;28;20041;-77
2024/02/10 03:10:50;;;;;;;12.85;4.60;;;;;;;9.66;100.00;97968.47;5187017;28;20029;-78
2024/02/10 03:13:21;;;;;;;12.10;4.70;;;;;;;9.73;100.00;97974.88;5197539;28;20500;-77
2024/02/10 03:15:51;;;;;;;11.15;4.20;;;;;;;9.63;100.00;97979.94;5183510;28;20037;-78
2024/02/10 03:18:21;;;;;;;17.65;5.63;;;;;;;9.64;100.00;97970.34;5196495;28;20410;-77
2024/02/10 03:20:53;;;;;;;12.05;4.88;;;;;;;9.55;100.00;97978.84;5188475;28;20234;-76
2024/02/10 03:23:23;;;;;;;8.98;4.63;;;;;;;9.63;100.00;97969.50;5192253;28;20113;-78
2024/02/10 03:25:56;;;;;;;16.98;4.85;;;;;;;9.62;100.00;97978.28;5192674;28;20128;-77
2024/02/10 03:28:27;;;;;;;12.68;4.53;;;;;;;9.62;100.00;97986.09;5194236;28;20033;-78
2024/02/10 03:30:57;;;;;;;9.70;4.38;;;;;;;9.61;100.00;97983.59;5180726;28;20025;-78
2024/02/10 03:33:32;;;;;;;10.40;4.82;;;;;;;9.54;100.00;97974.56;5182940;28;20033;-78
2024/02/10 03:36:03;;;;;;;15.07;5.03;;;;;;;9.55;100.00;97981.44;5185952;28;20104;-77
2024/02/10 03:38:33;;;;;;;9.70;4.57;;;;;;;9.62;100.00;97980.06;5180802;28;20402;-78
2024/02/10 03:41:03;;;;;;;7.70;4.30;;;;;;;9.52;100.00;97987.69;5199002;28;20036;-78
2024/02/10 03:43:34;;;;;;;10.93;4.40;;;;;;;9.52;100.00;97985.09;5198816;28;20021;-78
2024/02/10 03:46:04;;;;;;;13.90;4.47;;;;;;;9.44;100.00;97989.19;5201749;28;20025;-78
2024/02/10 03:48:39;;;;;;;10.00;3.88;;;;;;;9.52;100.00;97992.09;5200842;28;20025;-78
2024/02/10 03:51:11;;;;;;;18.08;4.50;;;;;;;9.50;100.00;97986.16;5231591;22;20060;-77
2024/02/10 03:53:41;;;;;;;8.75;4.35;;;;;;;9.49;100.00;97985.31;5219729;28;20280;-76
2024/02/10 03:56:12;;;;;;;12.75;4.35;;;;;;;9.52;100.00;97992.09;5208843;28;20037;-77
2024/02/10 03:58:43;;;;;;;9.20;4.32;;;;;;;9.57;100.00;97990.81;5220689;28;20025;-77
2024/02/10 04:01:14;;;;;;;8.55;4.70;;;;;;;9.52;100.00;97994.69;5220186;28;20025;-76
2024/02/10 04:03:45;;;;;;;10.13;4.53;;;;;;;9.52;100.00;97999.91;5220617;28;20036;-77
2024/02/10 04:06:18;;;;;;;11.88;4.55;;;;;;;9.55;100.00;97997.94;5217318;28;20033;-78
2024/02/10 04:08:49;;;;;;;9.90;4.15;;;;;;;9.48;100.00;97991.47;5220978;28;20315;-77
2024/02/10 04:11:20;;;;;;;19.02;4.95;;;;;;;9.42;100.00;97997.13;5219723;28;20108;-76
2024/02/10 04:13:50;;;;;;;9.45;4.20;;;;;;;9.37;100.00;98001.00;5220598;28;20078;-76
2024/02/10 04:16:21;;;;;;;11.13;4.53;;;;;;;9.34;100.00;97993.41;5220141;28;20107;-77
2024/02/10 04:18:53;;;;;;;8.23;4.20;;;;;;;9.30;100.00;97999.81;5221204;28;20085;-78
2024/02/10 04:21:24;;;;;;;8.15;4.13;;;;;;;9.30;100.00;97997.19;5219629;28;20272;-77
2024/02/10 04:23:54;;;;;;;13.93;4.93;;;;;;;9.36;100.00;97997.59;5221239;28;20486;-77
2024/02/10 04:26:24;;;;;;;13.07;4.47;;;;;;;9.27;100.00;97992.19;5204352;28;20124;-77
2024/02/10 04:28:54;;;;;;;9.65;4.53;;;;;;;9.24;100.00;97993.25;5221057;28;20486;-77
2024/02/10 04:31:25;;;;;;;10.45;4.57;;;;;;;9.32;100.00;97995.31;5219332;28;20044;-77
2024/02/10 04:33:55;;;;;;;16.08;4.70;;;;;;;9.25;100.00;97994.06;5219585;28;20225;-76
2024/02/10 04:36:25;;;;;;;8.48;4.07;;;;;;;9.23;100.00;97988.13;5216562;28;20075;-77
2024/02/10 04:38:57;;;;;;;7.95;4.28;;;;;;;9.18;100.00;97985.84;5217071;28;20457;-77
2024/02/10 04:41:27;;;;;;;10.95;4.63;;;;;;;9.14;100.00;97983.59;5216683;28;20055;-77
2024/02/10 04:43:57;;;;;;;15.27;6.85;;;;;;;9.25;100.00;97989.69;5217708;28;20044;-77
2024/02/10 04:46:29;;;;;;;14.45;7.20;;;;;;;9.25;100.00;97988.84;5216156;28;20062;-76
2024/02/10 04:48:59;;;;;;;9.73;5.28;;;;;;;9.26;100.00;97995.72;5203937;28;20044;-77
2024/02/10 04:51:31;;;;;;;9.73;4.70;;;;;;;9.25;100.00;97999.28;5216752;28;20035;-76
2024/02/10 04:54:04;;;;;;;9.85;4.10;;;;;;;9.17;100.00;97988.59;5204317;28;20017;-77
2024/02/10 04:56:35;;;;;;;9.95;5.50;;;;;;;9.10;100.00;97995.16;5216309;28;20029;-77
2024/02/10 04:59:05;;;;;;;10.23;6.00;;;;;;;9.27;100.00;97998.22;5215759;28;20029;-75
2024/02/10 05:01:36;;;;;;;10.43;5.82;;;;;;;9.13;100.00;98006.19;5215378;28;20541;-76
2024/02/10 05:04:07;;;;;;;10.63;5.05;;;;;;;9.16;100.00;97999.94;5216069;28;20029;-75
2024/02/10 05:06:38;;;;;;;9.98;4.57;;;;;;;9.13;100.00;97996.72;5206443;28;21043;-76
2024/02/10 05:09:11;;;;;;;8.45;4.13;;;;;;;9.16;100.00;97995.56;5215413;28;20043;-76
2024/02/10 05:11:41;;;;;;;11.77;5.30;;;;;;;9.16;100.00;98002.56;5215867;28;20037;-76
2024/02/10 05:14:12;;;;;;;12.32;4.97;;;;;;;9.28;100.00;97993.88;5217506;28;20035;-77
2024/02/10 05:16:42;;;;;;;7.75;4.13;;;;;;;9.30;100.00;97992.81;5218449;28;20025;-76
2024/02/10 05:19:14;;;;;;;12.10;4.90;;;;;;;9.24;100.00;97995.00;5218282;28;20029;-76
2024/02/10 05:21:44;;;;;;;10.35;4.75;;;;;;;9.29;100.00;97992.94;5218748;28;20051;-77
2024/02/10 05:24:15;;;;;;;9.60;5.13;;;;;;;9.32;100.00;97990.09;5216498;28;20025;-76
2024/02/10 05:26:45;;;;;;;12.50;4.88;;;;;;;9.20;100.00;97990.97;5218203;28;20040;-76
2024/02/10 05:29:18;;;;;;;8.80;4.50;;;;;;;9.17;100.00;97985.97;5218038;28;20550;-76
2024/02/10 05:31:48;;;;;;;7.38;4.25;;;;;;;9.13;100.00;97987.97;5205333;28;20164;-78
2024/02/10 05:34:19;;;;;;;8.02;4.60;;;;;;;9.16;100.00;97992.13;5217180;28;20027;-76
2024/02/10 05:36:49;;;;;;;7.00;4.30;;;;;;;9.13;100.00;97992.34;5207515;28;20178;-76
2024/02/10 05:39:20;;;;;;;6.80;3.88;;;;;;;9.13;100.00;97997.56;5217968;28;20033;-76
2024/02/10 05:41:52;;;;;;;9.60;4.70;;;;;;;9.05;100.00;97992.03;5218158;28;20296;-77
2024/02/10 05:44:23;;;;;;;5.80;3.45;;;;;;;8.98;100.00;97997.78;5217700;28;20020;-76
2024/02/10 05:46:53;;;;;;;7.57;4.45;;;;;;;9.02;100.00;97994.03;5217639;28;20035;-76
2024/02/10 05:49:25;;;;;;;11.13;4.53;;;;;;;9.02;100.00;97997.47;5212536;28;20509;-77
2024/02/10 05:51:55;;;;;;;9.32;5.13;;;;;;;8.98;100.00;97996.03;5216893;28;20025;-77
2024/02/10 05:54:33;;;;;;;9.45;4.68;;;;;;;9.11;100.00;97996.00;5217257;28;20064;-77
2024/02/10 05:57:03;;;;;;;11.82;5.93;;;;;;;9.00;100.00;97999.34;5216091;28;20032;-76
2024/02/10 05:59:38;;;;;;;12.63;6.05;;;;;;;8.99;100.00;97994.25;5217259;28;20410;-76
2024/02/10 06:02:08;;;;;;;12.53;5.40;;;;;;;8.98;100.00;98008.22;5203066;28;20029;-77
2024/02/10 06:04:41;;;;;;;11.18;5.07;;;;;;;9.06;100.00;97998.91;5218378;28;20033;-75
2024/02/10 06:07:18;;;;;;;16.58;5.25;;;;;;;9.01;100.00;98008.84;5217073;28;20104;-76
2024/02/10 06:09:48;;;;;;;9.82;5.07;;;;;;;8.95;100.00;98001.47;5216849;28;20025;-77
2024/02/10 06:12:19;;;;;;;11.13;5.35;;;;;;;8.93;100.00;98008.53;5216533;28;20502;-76
2024/02/10 06:14:49;;;;;;;8.75;5.80;;;;;;;8.99;100.00;98015.94;5206351;28;20126;-76
2024/02/10 06:17:23;;;;;;;14.98;6.07;;;;;;;8.90;100.00;98010.53;5216018;28;20040;-76
2024/02/10 06:19:53;;;;;;;13.98;6.35;;;;;;;8.97;100.00;98014.34;5217732;28;20033;-77
2024/02/10 06:22:26;;;;;;;11.02;6.22;;;;;;;8.88;100.00;98012.41;5216313;28;20032;-77
2024/02/10 06:24:57;;;;;;;10.85;6.20;;;;;;;8.84;100.00;98014.38;5217983;28;20356;-77
2024/02/10 06:27:27;;;;;;;13.30;6.55;;;;;;;8.80;100.00;98012.94;5212604;28;20636;-76
2024/02/10 06:29:58;;;;;;;15.30;6.78;;;;;;;8.76;100.00;98011.47;5217600;28;20032;-76
2024/02/10 06:32:28;;;;;;;11.70;6.93;;;;;;;8.74;100.00;98013.34;5216401;28;20470;-77
2024/02/10 06:34:58;;;;;;;12.95;6.22;;;;;;;8.73;100.00;98016.88;5217155;28;20028;-77
2024/02/10 06:37:32;;;;;;;12.00;6.55;;;;;;;8.84;100.00;98019.59;5213071;28;20045;-76
2024/02/10 06:40:07;;;;;;;11.85;7.00;;;;;;;8.81;100.00;98021.56;5216827;28;20154;-78
2024/02/10 06:42:37;;;;;;;11.48;6.80;;;;;;;8.77;100.00;98023.56;5216144;28;20070;-77
2024/02/10 06:45:13;;;;;;;14.68;7.10;;;;;;;8.70;100.00;98022.31;5216920;28;20025;-76
2024/02/10 06:47:45;;;;;;;12.15;6.60;;;;;;;8.70;100.00;98030.13;5216170;28;20391;-76
2024/02/10 06:50:23;;;;;;;12.77;6.90;;;;;;;8.65;100.00;98034.81;5215948;28;20563;-76
2024/02/10 06:52:54;;;;;;;10.38;5.78;;;;;;;8.70;100.00;98035.31;5217475;28;20029;-77
2024/02/10 06:55:26;;;;;;;12.25;6.80;;;;;;;8.67;100.00;98032.09;5205210;28;20036;-76
2024/02/10 06:57:57;;;;;;;15.32;7.05;;;;;;;8.66;100.00;98040.84;5216378;28;20070;-77
2024/02/10 07:00:30;;;;;;;12.25;6.50;;;;;;;8.72;100.00;98038.66;5216605;28;20120;-77
2024/02/10 07:03:02;;;;;;;11.95;6.60;;;;;;;8.71;100.00;98044.81;5217120;28;20475;-76
2024/02/10 07:05:37;;;;;;;9.23;5.95;;;;;;;8.76;100.00;98044.50;5204905;28;20037;-77
2024/02/10 07:08:11;;;;;;;11.15;6.40;;;;;;;8.68;100.00;98050.22;5220019;28;20039;-77
2024/02/10 07:10:45;;;;;;;13.00;6.25;;;;;;;8.76;100.00;98045.31;5220033;28;20044;-77
2024/02/10 07:13:15;;;;;;;10.68;5.45;;;;;;;8.81;100.00;98050.22;5220492;28;20337;-76
2024/02/10 07:15:45;;;;;;;9.77;5.90;;;;;;;8.78;100.00;98055.63;5220575;28;20347;-76
2024/02/10 07:18:16;;;;;;;11.57;5.95;;;;;;;8.73;100.00;98058.53;5220250;28;20046;-76
2024/02/10 07:20:46;;;;;;;9.18;5.35;;;;;;;8.72;100.00;98056.88;5219171;28;20529;-77
2024/02/10 07:23:16;;;;;;;8.07;4.70;;;;;;;8.72;100.00;98056.88;5220112;28;20060;-76
2024/02/10 07:25:47;;;;;;;9.02;4.95;;;;;;;8.77;100.00;98062.63;5220770;28;20033;-76
2024/02/10 07:28:21;;;;;;;8.05;4.40;;;;;;;8.75;100.00;98061.06;5221448;28;20033;-76
2024/02/10 07:30:52;;;;;;;9.52;4.60;;;;;;;8.76;100.00;98060.94;5205973;28;20437;-77
2024/02/10 07:33:22;;;;;;;6.60;3.92;;;;;;;8.84;100.00;98056.06;5219583;28;20086;-77
2024/02/10 07:35:53;;;;;;;7.75;4.78;;;;;;;8.81;100.00;98058.88;5220970;28;20538;-77
2024/02/10 07:38:23;;;;;;;6.78;4.28;;;;;;;8.83;100.00;98064.81;5205282;28;20291;-77
2024/02/10 07:40:54;;;;;;;8.43;4.85;;;;;;;8.83;100.00;98064.81;5221034;28;20080;-77
2024/02/10 07:43:27;;;;;;;8.02;4.60;;;;;;;8.88;100.00;98070.53;5202941;28;20024;-77
2024/02/10 07:45:58;;;;;;;10.65;4.75;;;;;;;8.90;100.00;98076.44;5206455;28;20047;-77
2024/02/10 07:48:29;;;;;;;8.38;4.28;;;;;;;8.97;100.00;98077.72;5219688;28;20040;-76
2024/02/10 07:51:01;;;;;;;7.70;4.45;;;;;;;9.04;100.00;98088.53;5219905;28;20052;-77
2024/02/10 07:53:32;;;;;;;8.30;4.72;;;;;;;9.05;100.00;98085.81;5204782;28;20029;-77
2024/02/10 07:56:02;;;;;;;7.45;4.28;;;;;;;9.19;100.00;98093.50;5219969;28;20021;-77
2024/02/10 07:58:32;;;;;;;8.60;4.38;;;;;;;9.26;100.00;98092.13;5218576;28;20044;-77
2024/02/10 08:01:03;;;;;;;8.23;4.53;;;;;;;9.36;100.00;98099.22;5205861;28;20394;-77
2024/02/10 08:03:33;;;;;;;8.35;4.95;;;;;;;9.46;100.00;98104.63;5219186;28;20110;-76
2024/02/10 08:06:06;;;;;;;8.15;4.55;;;;;;;9.59;100.00;98098.44;5219299;28;20520;-76
2024/02/10 08:08:37;;;;;;;7.95;4.60;;;;;;;9.67;100.00;98105.72;5202375;28;20683;-77
2024/02/10 08:11:07;;;;;;;8.88;4.40;;;;;;;9.76;100.00;98105.88;5219400;28;20032;-77
2024/02/10 08:13:37;;;;;;;6.43;4.18;;;;;;;9.87;100.00;98107.72;5220138;28;20486;-77
2024/02/10 08:16:08;;;;;;;8.93;4.40;;;;;;;9.89;100.00;98106.69;5206996;28;20024;-76
2024/02/10 08:18:41;;;;;;;6.95;3.90;;;;;;;10.03;100.00;98111.75;5218203;28;20103;-76
2024/02/10 08:21:12;;;;;;;7.03;4.05;;;;;;;10.01;100.00;98120.59;5219889;28;20448;-77
2024/02/10 08:23:44;;;;;;;6.78;4.10;;;;;;;10.19;100.00;98119.31;5204157;28;20025;-76
2024/02/10 08:26:17;;;;;;;7.15;3.97;;;;;;;10.24;100.00;98123.25;5216787;28;20664;-76
2024/02/10 08:28:50;;;;;;;12.07;4.35;;;;;;;10.24;100.00;98114.56;5218548;28;20025;-76
2024/02/10 08:31:21;;;;;;;7.82;4.25;;;;;;;10.35;100.00;98123.28;5219226;28;20037;-76
2024/02/10 08:33:52;;;;;;;6.22;3.63;;;;;;;10.35;100.00;98132.91;5219799;28;20033;-76
2024/02/10 08:36:23;;;;;;;7.05;4.15;;;;;;;10.38;100.00;98137.88;5204985;28;20037;-76
2024/02/10 08:38:56;;;;;;;6.53;3.60;;;;;;;10.32;100.00;98138.34;5217985;28;20028;-76
2024/02/10 08:41:27;;;;;;;5.22;3.08;;;;;;;10.40;100.00;98134.22;5221032;28;20459;-76
2024/02/10 08:43:57;;;;;;;4.85;2.90;;;;;;;10.47;100.00;98134.59;5219279;28;20074;-76
2024/02/10 08:46:28;;;;;;;6.95;3.17;;;;;;;10.54;100.00;98141.03;5217773;28;20043;-76
2024/02/10 08:48:58;;;;;;;5.60;3.35;;;;;;;10.55;100.00;98138.28;5218422;28;20032;-76
2024/02/10 08:51:30;;;;;;;7.10;3.30;;;;;;;10.72;100.00;98137.03;5215686;28;20037;-76
2024/02/10 08:54:01;;;;;;;5.25;3.15;;;;;;;10.85;100.00;98145.63;5217467;28;20029;-76
2024/02/10 08:56:38;;;;;;;5.53;2.88;;;;;;;10.94;100.00;98150.16;5216822;28;20037;-77
2024/02/10 08:59:14;;;;;;;5.80;3.20;;;;;;;10.94;100.00;98142.31;5216786;28;20075;-76
2024/02/10 09:01:45;;;;;;;5.00;3.00;;;;;;;11.00;100.00;98154.94;5219467;28;20099;-76
2024/02/10 09:04:15;;;;;;;5.90;2.83;;;;;;;11.34;100.00;98147.00;5219444;28;20693;-76
2024/02/10 09:06:46;;;;;;;6.15;3.15;;;;;;;11.54;100.00;98141.91;5218371;28;20079;-76
2024/02/10 09:09:16;;;;;;;8.52;3.00;;;;;;;11.76;100.00;98139.28;5219459;28;20294;-76
2024/02/10 09:11:47;;;;;;;5.03;2.58;;;;;;;12.11;100.00;98133.88;5217853;28;20025;-76
2024/02/10 09:14:19;;;;;;;4.03;2.75;;;;;;;12.39;100.00;98136.75;5217943;28;20525;-76
2024/02/10 09:16:49;;;;;;;4.13;2.80;;;;;;;12.46;100.00;98139.69;5218699;28;20510;-76
2024/02/10 09:19:20;;;;;;;3.80;2.17;;;;;;;12.52;100.00;98142.66;5218240;28;20047;-76
2024/02/10 09:21:58;;;;;;;2.85;1.92;;;;;;;12.71;100.00;98140.16;5218956;28;20056;-76
2024/02/10 09:24:29;;;;;;;5.32;2.50;;;;;;;12.74;100.00;98132.03;5188353;28;20489;-76
2024/02/10 09:26:59;;;;;;;3.20;2.00;;;;;;;12.82;100.00;98139.28;5219059;28;20357;-76
2024/02/10 09:29:30;;;;;;;5.50;2.17;;;;;;;12.80;100.00;98143.81;5215641;28;20048;-77
2024/02/10 09:32:00;;;;;;;3.70;2.00;;;;;;;12.79;100.00;98140.34;5217257;28;20162;-76
2024/02/10 09:34:31;;;;;;;2.95;1.90;;;;;;;12.91;100.00;98137.53;5215919;28;20040;-77
2024/02/10 09:37:03;;;;;;;4.28;2.03;;;;;;;12.83;100.00;98149.59;5217741;28;20045;-76
2024/02/10 09:39:37;;;;;;;3.50;1.60;;;;;;;12.98;100.00;98146.59;5216355;28;20087;-77
2024/02/10 09:42:20;;;;;;;3.10;1.63;;;;;;;13.02;100.00;98147.97;5205311;28;20044;-76
2024/02/10 09:44:51;;;;;;;2.05;1.45;;;;;;;13.07;100.00;98142.38;5217433;28;20032;-76
2024/02/10 09:47:23;;;;;;;2.58;1.50;;;;;;;13.11;100.00;98144.59;5217417;28;20035;-76
2024/02/10 09:50:00;;;;;;;2.90;1.30;;;;;;;13.30;100.00;98142.09;5217526;28;20501;-76
2024/02/10 09:52:35;;;;;;;3.78;1.20;;;;;;;13.17;100.00;98141.44;5347225;22;20056;-77
2024/02/10 09:55:07;;;;;;;4.78;1.20;;;;;;;13.16;100.00;98138.94;5259223;28;20032;-76
2024/02/10 09:57:37;;;;;;;2.33;1.23;;;;;;;13.23;100.00;98147.97;5259775;28;20042;-77
2024/02/10 10:00:09;;;;;;;1.20;0.75;;;;;;;13.06;100.00;98143.31;5260739;28;20027;-77
2024/02/10 10:02:40;;;;;;;1.83;0.90;;;;;;;13.42;100.00;98141.00;5259546;28;20392;-76
2024/02/10 10:05:11;;;;;;;1.00;0.60;;;;;;;13.06;100.00;98143.31;5260004;28;20042;-77
2024/02/10 10:07:41;;;;;;;1.42;0.60;;;;;;;13.28;100.00;98136.13;5245422;28;20027;-77
2024/02/10 10:10:12;;;;;;;1.73;0.70;;;;;;;13.34;100.00;98145.25;5259342;28;20023;-77
2024/02/10 10:12:43;;;;;;;2.40;0.60;;;;;;;13.40;100.00;98142.94;5259405;28;20070;-77
2024/02/10 10:15:14;;;;;;;1.50;0.55;;;;;;;13.68;100.00;98144.00;5249767;28;20028;-77
2024/02/10 10:17:44;;;;;;;1.30;0.50;;;;;;;13.73;100.00;98141.84;5243677;28;20039;-77
2024/02/10 10:20:19;;;;;;;1.10;0.40;;;;;;;13.77;100.00;98136.16;5253354;28;20032;-77
2024/02/10 10:22:50;;;;;;;0.82;0.50;;;;;;;13.55;100.00;98132.94;5244597;28;20051;-75
2024/02/10 10:25:20;;;;;;;1.60;0.50;;;;;;;13.72;100.00;98132.31;5257754;28;20382;-77
2024/02/10 10:27:51;;;;;;;2.67;0.57;;;;;;;13.82;100.00;98138.41;5258720;28;20032;-77
2024/02/10 10:30:25;;;;;;;1.40;0.30;;;;;;;13.73;100.00;98128.72;5258906;28;20405;-77
2024/02/10 10:32:57;;;;;;;0.60;0.30;;;;;;;13.86;100.00;98132.75;5258820;28;20056;-77
2024/02/10 10:35:28;;;;;;;1.58;0.20;;;;;;;13.84;100.00;98136.47;5246472;28;20062;-77
2024/02/10 10:37:59;;;;;;;0.38;0.32;;;;;;;13.86;100.00;98137.16;5257515;28;20035;-77
2024/02/10 10:40:32;;;;;;;1.00;0.20;;;;;;;13.71;98.75;98135.91;5258228;28;20039;-77
2024/02/10 10:43:10;;;;;;;0.30;0.20;;;;;;;13.83;97.95;98134.81;5246544;28;20481;-77
2024/02/10 10:45:40;;;;;;;0.50;0.30;;;;;;;13.93;98.30;98133.06;5258369;28;20455;-77
2024/02/10 10:48:11;;;;;;;0.25;0.20;;;;;;;13.93;99.20;98133.06;5254941;28;20035;-77
2024/02/10 10:50:42;;;;;;;1.08;0.30;;;;;;;13.91;96.34;98132.34;5255967;28;20034;-76
2024/02/10 10:53:12;;;;;;;0.55;0.30;;;;;;;13.95;100.00;98128.50;5259173;28;20023;-77
2024/02/10 10:55:51;;;;;;;2.90;0.35;;;;;;;13.97;97.62;98134.44;5255922;28;20025;-77
2024/02/10 10:58:25;;;;;;;1.08;0.30;;;;;;;14.19;98.77;98131.59;5258848;28;20374;-77
2024/02/10 11:00:59;;;;;;;0.70;0.20;;;;;;;14.12;98.03;98133.09;5259213;28;20032;-77
2024/02/10 11:03:30;;;;;;;0.30;0.20;;;;;;;14.23;99.57;98143.50;5242504;28;20020;-77
2024/02/10 11:06:10;;;;;;;2.05;0.28;;;;;;;14.15;100.00;98130.19;5258279;28;20405;-77
2024/02/10 11:08:45;;;;;;;1.48;0.20;;;;;;;14.18;100.00;98124.69;5242105;28;20039;-77
2024/02/10 11:11:15;;;;;;;1.20;0.30;;;;;;;14.34;100.00;98131.06;5258222;28;20035;-77
2024/02/10 11:13:46;;;;;;;1.40;0.40;;;;;;;14.36;98.89;98123.88;5258949;28;20405;-77
2024/02/10 11:16:17;;;;;;;1.13;0.30;;;;;;;14.18;97.46;98116.81;5259749;28;20221;-76
2024/02/10 11:18:58;;;;;;;0.35;0.20;;;;;;;14.16;97.92;98116.13;5258584;28;20508;-76
2024/02/10 11:21:35;;;;;;;0.60;0.30;;;;;;;14.19;97.20;98107.97;5242775;28;20036;-75
2024/02/10 11:24:10;;;;;;;0.22;0.20;;;;;;;14.24;98.41;98121.53;5226908;28;20352;-77
2024/02/10 11:26:42;;;;;;;1.27;0.20;;;;;;;14.24;97.80;98118.91;5245699;28;20494;-76
2024/02/10 11:29:18;;;;;;;0.43;0.20;;;;;;;14.17;97.05;98107.25;5260254;28;20058;-76
2024/02/10 11:31:48;;;;;;;0.35;0.10;;;;;;;14.02;94.39;98113.84;5259799;28;20108;-76
2024/02/10 11:34:18;;;;;;;1.35;0.17;;;;;;;13.83;95.37;98104.16;5237797;28;20063;-76
2024/02/10 11:36:59;;;;;;;0.90;0.20;;;;;;;14.00;97.89;98097.41;5239187;28;20028;-77
2024/02/10 11:39:31;;;;;;;0.10;0.10;;;;;;;13.97;97.03;98105.56;5248592;28;20028;-75
2024/02/10 11:42:01;;;;;;;0.47;0.20;;;;;;;14.24;99.27;98097.88;5240280;28;20023;-76
2024/02/10 11:44:32;;;;;;;1.05;0.20;;;;;;;14.12;97.40;98105.00;5257777;28;20032;-76
2024/02/10 11:47:02;;;;;;;0.20;0.20;;;;;;;14.26;99.34;98102.03;5257243;28;20500;-76
2024/02/10 11:49:33;;;;;;;2.08;0.20;;;;;;;14.23;99.67;98102.28;5254798;28;20047;-75